createdAt,value
2023-06-26T00:00:59.582Z,13.65
2023-06-26T00:03:27.238Z,11.88
2023-06-26T00:05:54.410Z,12.20
2023-06-26T00:08:21.728Z,11.40
2023-06-26T00:10:52.633Z,11.93
2023-06-26T00:13:20.307Z,12.13
2023-06-26T00:15:47.930Z,11.82
2023-06-26T00:18:15.284Z,12.38
2023-06-26T00:20:42.498Z,12.80
2023-06-26T00:23:09.692Z,12.27
2023-06-26T00:25:37.216Z,12.77
2023-06-26T00:28:04.790Z,12.05
2023-06-26T00:30:32.188Z,11.38
2023-06-26T00:32:59.595Z,9.88
2023-06-26T00:35:27.337Z,10.32
2023-06-26T00:37:54.835Z,10.85
2023-06-26T00:40:22.247Z,10.43
2023-06-26T00:42:49.379Z,10.77
2023-06-26T00:45:19.763Z,11.23
2023-06-26T00:47:53.340Z,11.00
2023-06-26T00:50:21.614Z,9.95
2023-06-26T00:52:48.837Z,8.80
2023-06-26T00:55:16.226Z,10.00
2023-06-26T00:57:47.043Z,11.10
2023-06-26T01:00:15.008Z,11.57
2023-06-26T01:02:42.426Z,11.45
2023-06-26T01:05:14.117Z,12.60
2023-06-26T01:07:44.223Z,13.27
2023-06-26T01:10:11.640Z,12.07
2023-06-26T01:12:40.222Z,12.65
2023-06-26T01:15:08.981Z,13.75
2023-06-26T01:17:38.214Z,13.55
2023-06-26T01:20:10.622Z,14.10
2023-06-26T01:22:47.156Z,13.27
2023-06-26T01:25:52.853Z,14.30
2023-06-26T01:28:21.612Z,13.45
2023-06-26T01:30:51.156Z,15.20
2023-06-26T01:33:19.108Z,13.77
2023-06-26T01:35:47.469Z,14.93
2023-06-26T01:38:24.283Z,13.07
2023-06-26T01:40:52.061Z,12.73
2023-06-26T01:44:02.472Z,15.30
2023-06-26T01:46:44.158Z,13.93
2023-06-26T01:49:15.643Z,13.60
2023-06-26T01:51:46.949Z,14.38
2023-06-26T01:54:20.547Z,14.00
2023-06-26T01:56:50.982Z,13.57
2023-06-26T01:59:20.334Z,15.10
2023-06-26T02:01:48.895Z,14.13
2023-06-26T02:04:16.385Z,14.02
2023-06-26T02:06:43.872Z,14.52
2023-06-26T02:09:12.117Z,14.52
2023-06-26T02:11:39.430Z,12.55
2023-06-26T02:14:06.640Z,13.15
2023-06-26T02:16:34.257Z,12.73
2023-06-26T02:19:01.836Z,13.63
2023-06-26T02:21:50.816Z,12.10
2023-06-26T02:24:18.421Z,12.07
2023-06-26T02:26:45.577Z,12.60
2023-06-26T02:29:13.930Z,14.10
2023-06-26T02:31:41.269Z,15.60
2023-06-26T02:34:08.548Z,15.63
2023-06-26T02:36:35.880Z,16.38
2023-06-26T02:39:06.379Z,15.38
2023-06-26T02:41:34.892Z,14.63
2023-06-26T02:44:02.676Z,14.75
2023-06-26T02:46:30.112Z,15.05
2023-06-26T02:48:58.293Z,14.10
2023-06-26T02:51:26.255Z,12.82
2023-06-26T02:53:55.478Z,13.30
2023-06-26T02:56:22.733Z,10.95
2023-06-26T02:58:50.184Z,13.40
2023-06-26T03:01:18.360Z,13.38
2023-06-26T03:03:48.500Z,13.75
2023-06-26T03:06:18.573Z,13.30
2023-06-26T03:08:46.557Z,13.23
2023-06-26T03:11:15.934Z,12.73
2023-06-26T03:13:43.367Z,13.20
2023-06-26T03:16:10.684Z,12.95
2023-06-26T03:18:38.252Z,13.68
2023-06-26T03:21:06.732Z,12.38
2023-06-26T03:23:34.043Z,11.90
2023-06-26T03:26:01.436Z,12.73
2023-06-26T03:28:32.586Z,13.05
2023-06-26T03:31:00.416Z,11.30
2023-06-26T03:33:28.205Z,11.63
2023-06-26T03:35:56.795Z,13.98
2023-06-26T03:38:25.275Z,12.65
2023-06-26T03:40:54.571Z,13.15
2023-06-26T03:43:23.160Z,10.55
2023-06-26T03:46:10.795Z,12.15
2023-06-26T03:48:39.302Z,11.60
2023-06-26T03:51:08.244Z,11.80
2023-06-26T03:53:35.897Z,11.88
2023-06-26T03:56:03.360Z,12.25
2023-06-26T03:58:31.008Z,13.07
2023-06-26T04:00:59.191Z,12.50
2023-06-26T04:03:26.814Z,11.05
2023-06-26T04:05:54.775Z,12.40
2023-06-26T04:08:22.491Z,12.02
2023-06-26T04:10:50.225Z,12.45
2023-06-26T04:13:17.637Z,12.98
2023-06-26T04:15:45.199Z,11.73
2023-06-26T04:18:13.753Z,12.38
2023-06-26T04:21:02.359Z,12.90
2023-06-26T04:23:29.678Z,12.38
2023-06-26T04:25:56.979Z,11.63
2023-06-26T04:28:24.565Z,11.00
2023-06-26T04:30:52.487Z,11.68
2023-06-26T04:33:19.978Z,12.07
2023-06-26T04:35:49.941Z,11.27
2023-06-26T04:38:17.116Z,11.70
2023-06-26T04:40:44.679Z,10.13
2023-06-26T04:43:12.082Z,9.95
2023-06-26T04:45:39.311Z,8.60
2023-06-26T04:48:07.114Z,9.15
2023-06-26T04:50:34.852Z,8.48
2023-06-26T04:53:03.594Z,9.88
2023-06-26T04:55:31.571Z,8.95
2023-06-26T04:57:58.809Z,8.52
2023-06-26T05:00:26.176Z,8.45
2023-06-26T05:03:02.495Z,8.70
2023-06-26T05:05:30.179Z,9.38
2023-06-26T05:07:57.562Z,9.82
2023-06-26T05:10:25.027Z,8.10
2023-06-26T05:12:52.484Z,7.65
2023-06-26T05:15:19.985Z,7.88
2023-06-26T05:17:47.347Z,7.47
2023-06-26T05:20:14.548Z,8.85
2023-06-26T05:22:42.160Z,8.18
2023-06-26T05:25:11.446Z,8.30
2023-06-26T05:27:38.936Z,8.27
2023-06-26T05:30:06.743Z,8.32
2023-06-26T05:32:37.276Z,8.63
2023-06-26T05:35:05.903Z,7.60
2023-06-26T05:37:34.826Z,6.53
2023-06-26T05:40:05.098Z,6.20
2023-06-26T05:42:33.259Z,6.57
2023-06-26T05:45:00.599Z,7.43
2023-06-26T05:47:28.231Z,6.57
2023-06-26T05:49:55.596Z,6.50
2023-06-26T05:52:23.248Z,6.38
2023-06-26T05:54:51.008Z,5.53
2023-06-26T05:57:19.310Z,6.13
2023-06-26T05:59:47.578Z,6.95
2023-06-26T06:02:15.517Z,6.60
2023-06-26T06:04:46.266Z,7.03
2023-06-26T06:07:13.969Z,6.97
2023-06-26T06:09:41.677Z,6.50
2023-06-26T06:12:09.464Z,7.03
2023-06-26T06:14:36.693Z,6.95
2023-06-26T06:17:04.325Z,7.15
2023-06-26T06:19:31.978Z,7.20
2023-06-26T06:21:59.232Z,6.70
2023-06-26T06:24:26.600Z,6.80
2023-06-26T06:26:53.885Z,6.20
2023-06-26T06:29:21.300Z,6.35
2023-06-26T06:31:48.667Z,6.78
2023-06-26T06:34:15.978Z,6.78
2023-06-26T06:36:43.471Z,6.38
2023-06-26T06:39:10.716Z,6.53
2023-06-26T06:41:37.985Z,5.97
2023-06-26T06:44:07.279Z,6.20
2023-06-26T06:46:34.728Z,6.18
2023-06-26T06:49:02.956Z,6.18
2023-06-26T06:51:30.288Z,5.75
2023-06-26T06:53:57.789Z,6.13
2023-06-26T06:56:25.052Z,5.63
2023-06-26T06:58:52.390Z,6.35
2023-06-26T07:01:19.729Z,7.22
2023-06-26T07:03:47.311Z,6.85
2023-06-26T07:06:14.777Z,5.65
2023-06-26T07:08:43.324Z,5.45
2023-06-26T07:11:15.130Z,6.10
2023-06-26T07:13:42.976Z,6.00
2023-06-26T07:16:12.776Z,6.05
2023-06-26T07:18:40.247Z,6.10
2023-06-26T07:21:07.454Z,5.88
2023-06-26T07:23:34.719Z,5.75
2023-06-26T07:26:01.970Z,6.45
2023-06-26T07:28:29.170Z,6.13
2023-06-26T07:30:57.524Z,6.30
2023-06-26T07:33:24.806Z,5.18
2023-06-26T07:35:52.110Z,5.88
2023-06-26T07:38:19.501Z,6.13
2023-06-26T07:40:46.923Z,5.13
2023-06-26T07:43:14.478Z,5.63
2023-06-26T07:45:41.842Z,5.30
2023-06-26T07:48:10.407Z,6.10
2023-06-26T07:50:38.154Z,6.35
2023-06-26T07:53:06.902Z,6.38
2023-06-26T07:55:34.492Z,6.18
2023-06-26T07:58:02.553Z,5.88
2023-06-26T08:00:29.901Z,6.03
2023-06-26T08:02:57.353Z,6.55
2023-06-26T08:05:24.939Z,6.60
2023-06-26T08:07:52.409Z,5.93
2023-06-26T08:10:19.880Z,6.45
2023-06-26T08:12:48.191Z,6.05
2023-06-26T08:15:15.720Z,5.80
2023-06-26T08:17:43.190Z,5.72
2023-06-26T08:20:12.279Z,6.43
2023-06-26T08:22:39.564Z,6.18
2023-06-26T08:25:07.658Z,6.75
2023-06-26T08:27:35.503Z,6.68
2023-06-26T08:30:02.955Z,6.35
2023-06-26T08:32:31.667Z,6.18
2023-06-26T08:34:59.084Z,6.57
2023-06-26T08:37:26.519Z,5.63
2023-06-26T08:39:53.930Z,6.55
2023-06-26T08:42:21.193Z,6.10
2023-06-26T08:45:01.067Z,5.53
2023-06-26T08:47:36.631Z,6.15
2023-06-26T08:50:09.021Z,5.88
2023-06-26T08:53:09.924Z,5.78
2023-06-26T08:55:39.726Z,6.47
2023-06-26T08:58:07.135Z,5.75
2023-06-26T09:00:35.204Z,5.85
2023-06-26T09:03:05.209Z,5.70
2023-06-26T09:05:36.230Z,5.65
2023-06-26T09:08:04.717Z,5.35
2023-06-26T09:10:32.921Z,6.20
2023-06-26T09:13:02.301Z,5.53
2023-06-26T09:15:39.548Z,5.55
2023-06-26T09:18:06.987Z,6.43
2023-06-26T09:20:37.220Z,6.13
2023-06-26T09:23:06.592Z,5.72
2023-06-26T09:25:35.068Z,6.68
2023-06-26T09:28:03.119Z,7.03
2023-06-26T09:30:33.588Z,6.25
2023-06-26T09:33:18.451Z,5.82
2023-06-26T09:35:47.773Z,5.85
2023-06-26T09:38:16.344Z,5.95
2023-06-26T09:40:43.800Z,5.25
2023-06-26T09:43:14.954Z,5.63
2023-06-26T09:45:42.756Z,6.95
2023-06-26T09:48:10.358Z,5.90
2023-06-26T09:50:39.617Z,5.47
2023-06-26T09:53:14.968Z,6.47
2023-06-26T09:55:45.120Z,6.90
2023-06-26T09:58:16.080Z,5.93
2023-06-26T10:00:47.068Z,5.70
2023-06-26T10:03:14.789Z,5.68
2023-06-26T10:05:42.624Z,5.50
2023-06-26T10:08:15.213Z,6.03
2023-06-26T10:10:44.009Z,5.05
2023-06-26T10:13:20.240Z,6.38
2023-06-26T10:15:48.031Z,5.50
2023-06-26T10:18:20.790Z,5.70
2023-06-26T10:20:50.181Z,5.93
2023-06-26T10:23:20.846Z,5.53
2023-06-26T10:25:50.192Z,5.65
2023-06-26T10:28:18.244Z,5.68
2023-06-26T10:30:48.722Z,5.95
2023-06-26T10:33:16.329Z,5.22
2023-06-26T10:35:45.833Z,4.65
2023-06-26T10:38:13.768Z,4.97
2023-06-26T10:40:46.165Z,4.90
2023-06-26T10:45:47.559Z,5.03
2023-06-26T10:48:17.750Z,5.00
2023-06-26T10:50:48.951Z,5.80
2023-06-26T10:53:16.290Z,5.72
2023-06-26T10:55:48.470Z,5.95
2023-06-26T10:58:35.988Z,5.30
2023-06-26T11:01:17.158Z,5.75
2023-06-26T11:04:03.666Z,6.07
2023-06-26T11:06:33.054Z,5.90
2023-06-26T11:09:06.845Z,5.80
2023-06-26T11:11:52.991Z,6.03
2023-06-26T11:14:25.513Z,5.65
2023-06-26T11:16:58.363Z,5.72
2023-06-26T11:19:29.460Z,5.53
2023-06-26T11:22:00.538Z,5.60
2023-06-26T11:24:28.008Z,5.65
2023-06-26T11:27:01.362Z,5.55
2023-06-26T11:29:28.793Z,5.35
2023-06-26T11:32:05.037Z,5.35
2023-06-26T11:34:39.543Z,5.60
2023-06-26T11:37:07.963Z,5.13
2023-06-26T11:39:35.697Z,5.95
2023-06-26T11:42:03.524Z,5.20
2023-06-26T11:44:32.221Z,4.97
2023-06-26T11:46:59.852Z,4.72
2023-06-26T11:49:27.864Z,5.13
2023-06-26T11:51:58.180Z,5.15
2023-06-26T11:54:28.058Z,4.80
2023-06-26T11:56:58.970Z,4.93
2023-06-26T11:59:35.083Z,5.00
2023-06-26T12:02:07.288Z,4.82
2023-06-26T12:07:10.763Z,4.60
2023-06-26T12:09:45.245Z,5.03
2023-06-26T12:12:14.766Z,5.03
2023-06-26T12:14:43.057Z,5.68
2023-06-26T12:17:15.637Z,4.82
2023-06-26T12:19:49.531Z,4.82
2023-06-26T12:22:18.899Z,5.22
2023-06-26T12:24:47.384Z,5.68
2023-06-26T12:27:16.153Z,5.40
2023-06-26T12:29:54.960Z,5.00
2023-06-26T12:32:27.708Z,5.57
2023-06-26T12:34:58.123Z,5.40
2023-06-26T12:37:26.003Z,5.47
2023-06-26T12:40:02.238Z,5.05
2023-06-26T12:42:34.997Z,5.10
2023-06-26T12:45:26.686Z,5.10
2023-06-26T12:48:08.821Z,5.93
2023-06-26T12:50:46.083Z,6.20
2023-06-26T12:53:14.634Z,5.95
2023-06-26T12:58:12.680Z,4.90
2023-06-26T13:00:40.792Z,5.25
2023-06-26T13:03:10.695Z,4.78
2023-06-26T13:05:39.143Z,5.85
2023-06-26T13:08:07.067Z,5.20
2023-06-26T13:10:34.408Z,5.40
2023-06-26T13:13:02.324Z,5.43
2023-06-26T13:15:29.747Z,5.32
2023-06-26T13:17:57.594Z,5.57
2023-06-26T13:20:24.958Z,5.75
2023-06-26T13:22:52.615Z,5.80
2023-06-26T13:25:19.851Z,5.30
2023-06-26T13:27:47.152Z,5.00
2023-06-26T13:30:18.300Z,5.00
2023-06-26T13:32:46.010Z,5.23
2023-06-26T13:35:15.037Z,5.40
2023-06-26T13:37:42.633Z,4.78
2023-06-26T13:40:11.042Z,5.50
2023-06-26T13:42:38.532Z,5.43
2023-06-26T13:45:15.414Z,5.30
2023-06-26T13:47:56.144Z,5.20
2023-06-26T13:50:23.514Z,5.20
2023-06-26T13:52:50.679Z,5.90
2023-06-26T13:55:19.030Z,5.55
2023-06-26T13:57:56.053Z,5.43
2023-06-26T14:00:23.516Z,5.15
2023-06-26T14:02:50.824Z,4.72
2023-06-26T14:05:27.210Z,4.90
2023-06-26T14:10:28.340Z,5.00
2023-06-26T14:13:05.724Z,4.75
2023-06-26T14:15:34.189Z,5.22
2023-06-26T14:18:05.553Z,4.97
2023-06-26T14:20:39.683Z,4.97
2023-06-26T14:23:07.159Z,5.00
2023-06-26T14:25:34.454Z,4.97
2023-06-26T14:28:04.050Z,4.90
2023-06-26T14:30:31.489Z,5.35
2023-06-26T14:32:58.739Z,5.30
2023-06-26T14:35:25.992Z,5.43
2023-06-26T14:37:56.079Z,5.13
2023-06-26T14:40:26.041Z,5.10
2023-06-26T14:42:56.552Z,5.28
2023-06-26T14:45:24.392Z,4.55
2023-06-26T14:47:52.296Z,4.85
2023-06-26T14:50:20.163Z,4.75
2023-06-26T14:52:47.487Z,5.00
2023-06-26T14:55:15.089Z,4.90
2023-06-26T14:57:42.366Z,5.15
2023-06-26T15:00:10.455Z,5.25
2023-06-26T15:02:38.156Z,5.28
2023-06-26T15:05:05.867Z,5.15
2023-06-26T15:07:35.861Z,5.18
2023-06-26T15:10:07.735Z,6.43
2023-06-26T15:12:35.075Z,5.43
2023-06-26T15:15:02.364Z,5.20
2023-06-26T15:17:32.380Z,5.30
2023-06-26T15:20:01.040Z,5.75
2023-06-26T15:22:29.840Z,6.40
2023-06-26T15:24:57.608Z,4.75
2023-06-26T15:27:25.826Z,4.95
2023-06-26T15:29:53.431Z,4.85
2023-06-26T15:32:21.274Z,5.00
2023-06-26T15:34:51.026Z,4.47
2023-06-26T15:37:21.221Z,4.68
2023-06-26T15:39:48.487Z,4.50
2023-06-26T15:42:16.016Z,3.83
2023-06-26T15:44:43.737Z,4.00
2023-06-26T15:47:11.183Z,4.07
2023-06-26T15:49:38.391Z,4.30
2023-06-26T15:52:06.184Z,3.90
2023-06-26T15:54:33.612Z,4.40
2023-06-26T15:57:00.836Z,3.92
2023-06-26T15:59:30.882Z,4.65
2023-06-26T16:01:58.378Z,4.30
2023-06-26T16:04:26.583Z,5.20
2023-06-26T16:06:57.933Z,5.05
2023-06-26T16:09:25.457Z,4.37
2023-06-26T16:11:53.010Z,5.10
2023-06-26T16:14:20.687Z,4.75
2023-06-26T16:16:48.325Z,4.85
2023-06-26T16:19:18.460Z,4.90
2023-06-26T16:21:45.684Z,4.40
2023-06-26T16:24:12.851Z,4.18
2023-06-26T16:26:41.076Z,4.35
2023-06-26T16:29:08.216Z,4.40
2023-06-26T16:31:35.485Z,4.90
2023-06-26T16:34:02.993Z,4.00
2023-06-26T16:36:30.361Z,4.07
2023-06-26T16:38:57.662Z,4.53
2023-06-26T16:41:25.277Z,4.03
2023-06-26T16:43:52.621Z,4.95
2023-06-26T16:46:19.983Z,4.28
2023-06-26T16:48:47.692Z,3.95
2023-06-26T16:51:20.936Z,4.70
2023-06-26T16:53:48.299Z,4.55
2023-06-26T16:56:17.382Z,4.55
2023-06-26T16:58:48.016Z,4.38
2023-06-26T17:01:15.250Z,4.50
2023-06-26T17:03:42.544Z,4.78
2023-06-26T17:06:10.645Z,5.32
2023-06-26T17:08:37.956Z,4.50
2023-06-26T17:11:06.491Z,5.25
2023-06-26T17:13:34.582Z,4.88
2023-06-26T17:16:01.901Z,4.68
2023-06-26T17:18:29.430Z,4.90
2023-06-26T17:20:56.598Z,4.82
2023-06-26T17:23:24.105Z,5.32
2023-06-26T17:25:51.354Z,4.50
2023-06-26T17:28:18.645Z,5.07
2023-06-26T17:30:46.616Z,5.30
2023-06-26T17:33:14.302Z,5.72
2023-06-26T17:35:41.648Z,5.15
2023-06-26T17:38:09.092Z,6.22
2023-06-26T17:40:36.276Z,5.32
2023-06-26T17:43:03.518Z,6.15
2023-06-26T17:45:31.165Z,5.75
2023-06-26T17:47:59.442Z,6.00
2023-06-26T17:50:27.482Z,5.75
2023-06-26T17:52:54.860Z,5.47
2023-06-26T17:55:22.241Z,5.60
2023-06-26T17:57:49.632Z,5.78
2023-06-26T18:00:17.382Z,5.65
2023-06-26T18:02:45.252Z,5.53
2023-06-26T18:05:13.453Z,6.00
2023-06-26T18:08:01.716Z,6.70
2023-06-26T18:10:28.955Z,6.47
2023-06-26T18:12:57.784Z,5.70
2023-06-26T18:15:25.628Z,5.18
2023-06-26T18:17:53.241Z,5.28
2023-06-26T18:20:20.865Z,5.10
2023-06-26T18:22:49.505Z,4.82
2023-06-26T18:25:16.941Z,4.63
2023-06-26T18:27:44.304Z,5.95
2023-06-26T18:30:12.602Z,5.18
2023-06-26T18:32:41.595Z,4.93
2023-06-26T18:35:09.238Z,5.40
2023-06-26T18:37:36.544Z,5.82
2023-06-26T18:40:08.093Z,5.32
2023-06-26T18:42:35.638Z,5.70
2023-06-26T18:45:02.922Z,5.65
2023-06-26T18:47:32.577Z,5.43
2023-06-26T18:49:59.969Z,5.50
2023-06-26T18:52:27.697Z,6.38
2023-06-26T18:54:55.166Z,6.90
2023-06-26T18:57:23.274Z,6.15
2023-06-26T18:59:50.589Z,6.63
2023-06-26T19:02:19.387Z,7.30
2023-06-26T19:04:47.257Z,7.30
2023-06-26T19:07:20.233Z,7.63
2023-06-26T19:09:47.760Z,8.68
2023-06-26T19:12:19.045Z,7.88
2023-06-26T19:14:48.910Z,8.10
2023-06-26T19:17:18.912Z,7.93
2023-06-26T19:19:46.622Z,7.45
2023-06-26T19:22:14.333Z,7.15
2023-06-26T19:24:41.555Z,7.32
2023-06-26T19:27:09.164Z,6.45
2023-06-26T19:29:36.670Z,6.57
2023-06-26T19:32:04.219Z,6.82
2023-06-26T19:34:32.255Z,6.68
2023-06-26T19:36:59.652Z,7.75
2023-06-26T19:39:26.924Z,6.97
2023-06-26T19:42:01.908Z,8.10
2023-06-26T19:44:29.399Z,7.47
2023-06-26T19:46:57.154Z,7.65
2023-06-26T19:49:25.077Z,8.25
2023-06-26T19:51:52.453Z,8.82
2023-06-26T19:54:19.859Z,9.57
2023-06-26T19:56:47.791Z,10.15
2023-06-26T19:59:15.129Z,10.30
2023-06-26T20:01:43.542Z,9.05
2023-06-26T20:04:11.163Z,8.38
2023-06-26T20:06:39.742Z,6.25
2023-06-26T20:09:07.985Z,7.80
2023-06-26T20:11:35.591Z,7.47
2023-06-26T20:14:04.454Z,8.25
2023-06-26T20:16:31.870Z,7.90
2023-06-26T20:18:59.302Z,8.80
2023-06-26T20:21:29.482Z,7.93
2023-06-26T20:23:56.657Z,7.82
2023-06-26T20:26:23.932Z,7.07
2023-06-26T20:28:51.324Z,7.88
2023-06-26T20:31:18.749Z,8.55
2023-06-26T20:33:46.477Z,8.10
2023-06-26T20:36:13.673Z,7.50
2023-06-26T20:38:41.547Z,7.93
2023-06-26T20:41:09.091Z,7.47
2023-06-26T20:43:36.676Z,6.95
2023-06-26T20:46:04.517Z,6.65
2023-06-26T20:48:32.348Z,3.85
2023-06-26T20:51:00.723Z,4.18
2023-06-26T20:53:28.761Z,4.30
2023-06-26T20:55:56.555Z,4.32
2023-06-26T20:58:24.005Z,4.45
2023-06-26T21:00:51.465Z,3.90
2023-06-26T21:03:19.846Z,4.00
2023-06-26T21:05:49.679Z,3.65
2023-06-26T21:08:16.940Z,3.85
2023-06-26T21:10:44.418Z,4.25
2023-06-26T21:13:11.923Z,2.75
2023-06-26T21:15:39.311Z,2.88
2023-06-26T21:18:07.120Z,3.00
2023-06-26T21:20:34.709Z,3.35
2023-06-26T21:23:02.044Z,3.20
2023-06-26T21:25:29.294Z,3.00
2023-06-26T21:27:56.619Z,2.90
2023-06-26T21:30:24.077Z,2.85
2023-06-26T21:32:51.384Z,3.15
2023-06-26T21:35:30.081Z,3.50
2023-06-26T21:38:07.492Z,3.85
2023-06-26T21:40:34.674Z,3.00
2023-06-26T21:43:02.049Z,3.42
2023-06-26T21:45:29.479Z,3.70
2023-06-26T21:47:56.762Z,3.58
2023-06-26T21:50:24.154Z,3.53
2023-06-26T21:52:51.307Z,3.75
2023-06-26T21:55:18.574Z,3.40
2023-06-26T21:57:45.755Z,3.40
2023-06-26T22:00:14.058Z,3.80
2023-06-26T22:02:41.930Z,4.18
2023-06-26T22:05:11.690Z,3.60
2023-06-26T22:07:50.603Z,3.67
2023-06-26T22:10:18.540Z,3.63
2023-06-26T22:12:47.577Z,4.40
2023-06-26T22:15:15.124Z,4.00
2023-06-26T22:17:53.797Z,4.25
2023-06-26T22:20:21.817Z,4.65
2023-06-26T22:22:49.308Z,4.97
2023-06-26T22:25:17.377Z,5.03
2023-06-26T22:27:50.157Z,5.65
2023-06-26T22:30:18.518Z,6.47
2023-06-26T22:32:47.888Z,5.53
2023-06-26T22:35:16.365Z,6.07
2023-06-26T22:37:44.805Z,6.80
2023-06-26T22:40:13.971Z,7.00
2023-06-26T22:42:41.736Z,6.82
2023-06-26T22:45:11.797Z,7.85
2023-06-26T22:47:40.171Z,7.22
2023-06-26T22:50:08.349Z,8.30
2023-06-26T22:52:35.802Z,7.82
2023-06-26T22:55:04.000Z,7.50
2023-06-26T22:57:33.158Z,6.80
2023-06-26T23:00:01.306Z,7.35
2023-06-26T23:02:31.237Z,7.85
2023-06-26T23:04:58.736Z,7.50
2023-06-26T23:07:27.412Z,6.78
2023-06-26T23:09:54.896Z,7.68
2023-06-26T23:12:22.097Z,6.88
2023-06-26T23:14:49.421Z,7.40
2023-06-26T23:17:16.736Z,7.60
2023-06-26T23:19:44.111Z,7.38
2023-06-26T23:22:11.351Z,7.95
2023-06-26T23:24:39.500Z,7.07
2023-06-26T23:27:09.977Z,6.68
2023-06-26T23:29:39.291Z,6.00
2023-06-26T23:32:08.779Z,7.20
2023-06-26T23:34:40.895Z,6.57
2023-06-26T23:37:09.907Z,6.85
2023-06-26T23:39:41.195Z,6.72
2023-06-26T23:42:09.572Z,6.40
2023-06-26T23:44:37.094Z,8.98
2023-06-26T23:47:05.567Z,8.10
2023-06-26T23:49:34.349Z,9.38
2023-06-26T23:52:02.541Z,9.23
2023-06-26T23:54:32.639Z,8.75
2023-06-26T23:57:00.616Z,9.48
2023-06-26T23:59:28.128Z,9.88
